sensor_id;sensor_type;location;lat;lon;timestamp;pressure;altitude;pressure_sealevel;temperature;humidity
67840;BME280;54636;51.684;5.142;2023-11-21T00:02:14;101129.38;;;5.69;100.00
67840;BME280;54636;51.684;5.142;2023-11-21T00:04:39;101131.00;;;5.66;100.00
67840;BME280;54636;51.684;5.142;2023-11-21T00:07:05;101126.94;;;5.61;100.00
67840;BME280;54636;51.684;5.142;2023-11-21T00:09:31;101132.00;;;5.59;100.00
67840;BME280;54636;51.684;5.142;2023-11-21T00:11:57;101119.97;;;5.51;100.00
67840;BME280;54636;51.684;5.142;2023-11-21T00:14:24;101124.47;;;5.54;100.00
67840;BME280;54636;51.684;5.142;2023-11-21T00:16:49;101124.91;;;5.53;100.00
67840;BME280;54636;51.684;5.142;2023-11-21T00:19:15;101135.25;;;5.54;100.00
67840;BME280;54636;51.684;5.142;2023-11-21T00:21:42;101125.16;;;5.46;100.00
67840;BME280;54636;51.684;5.142;2023-11-21T00:24:09;101129.03;;;5.45;100.00
67840;BME280;54636;51.684;5.142;2023-11-21T00:26:35;101129.91;;;5.42;100.00
67840;BME280;54636;51.684;5.142;2023-11-21T00:29:02;101135.72;;;5.40;100.00
67840;BME280;54636;51.684;5.142;2023-11-21T00:31:28;101107.28;;;5.17;100.00
67840;BME280;54636;51.684;5.142;2023-11-21T00:33:53;101135.53;;;5.35;100.00
67840;BME280;54636;51.684;5.142;2023-11-21T00:36:20;101131.22;;;5.37;100.00
67840;BME280;54636;51.684;5.142;2023-11-21T00:38:46;101120.34;;;5.28;100.00
67840;BME280;54636;51.684;5.142;2023-11-21T00:41:13;101128.19;;;5.35;100.00
67840;BME280;54636;51.684;5.142;2023-11-21T00:43:39;101121.53;;;5.27;100.00
67840;BME280;54636;51.684;5.142;2023-11-21T00:46:07;101130.06;;;5.25;100.00
67840;BME280;54636;51.684;5.142;2023-11-21T00:48:33;101138.91;;;5.26;100.00
67840;BME280;54636;51.684;5.142;2023-11-21T00:50:59;101140.19;;;5.21;100.00
67840;BME280;54636;51.684;5.142;2023-11-21T00:53:24;101138.19;;;5.13;100.00
67840;BME280;54636;51.684;5.142;2023-11-21T00:55:49;101146.16;;;5.16;100.00
67840;BME280;54636;51.684;5.142;2023-11-21T00:58:15;101135.41;;;5.04;100.00
67840;BME280;54636;51.684;5.142;2023-11-21T01:00:41;101146.81;;;5.08;100.00
67840;BME280;54636;51.684;5.142;2023-11-21T01:03:06;101135.97;;;4.99;100.00
67840;BME280;54636;51.684;5.142;2023-11-21T01:05:33;101144.03;;;4.99;100.00
67840;BME280;54636;51.684;5.142;2023-11-21T01:07:59;101149.31;;;4.89;100.00
67840;BME280;54636;51.684;5.142;2023-11-21T01:10:24;101163.31;;;4.97;100.00
67840;BME280;54636;51.684;5.142;2023-11-21T01:12:50;101160.09;;;4.89;100.00
67840;BME280;54636;51.684;5.142;2023-11-21T01:15:15;101149.09;;;4.84;100.00
67840;BME280;54636;51.684;5.142;2023-11-21T01:17:41;101158.38;;;4.83;100.00
67840;BME280;54636;51.684;5.142;2023-11-21T01:20:06;101175.81;;;4.91;100.00
67840;BME280;54636;51.684;5.142;2023-11-21T01:22:38;101176.56;;;4.91;100.00
67840;BME280;54636;51.684;5.142;2023-11-21T01:25:04;101177.31;;;4.92;100.00
67840;BME280;54636;51.684;5.142;2023-11-21T01:27:35;101163.75;;;4.83;100.00
67840;BME280;54636;51.684;5.142;2023-11-21T01:30:03;101176.78;;;4.84;100.00
67840;BME280;54636;51.684;5.142;2023-11-21T01:32:28;101163.44;;;4.81;100.00
67840;BME280;54636;51.684;5.142;2023-11-21T01:34:54;101169.56;;;4.81;100.00
67840;BME280;54636;51.684;5.142;2023-11-21T01:37:20;101173.88;;;4.79;100.00
67840;BME280;54636;51.684;5.142;2023-11-21T01:39:47;101167.94;;;4.71;100.00
67840;BME280;54636;51.684;5.142;2023-11-21T01:42:12;101174.28;;;4.64;100.00
67840;BME280;54636;51.684;5.142;2023-11-21T01:44:38;101179.13;;;4.70;100.00
67840;BME280;54636;51.684;5.142;2023-11-21T01:47:05;101193.13;;;4.64;100.00
67840;BME280;54636;51.684;5.142;2023-11-21T01:49:32;101197.84;;;4.60;100.00
67840;BME280;54636;51.684;5.142;2023-11-21T01:51:58;101205.59;;;4.58;100.00
67840;BME280;54636;51.684;5.142;2023-11-21T01:54:25;101201.53;;;4.54;100.00
67840;BME280;54636;51.684;5.142;2023-11-21T01:56:50;101208.84;;;4.53;100.00
67840;BME280;54636;51.684;5.142;2023-11-21T01:59:19;101204.97;;;4.54;100.00
67840;BME280;54636;51.684;5.142;2023-11-21T02:01:45;101204.53;;;4.56;100.00
67840;BME280;54636;51.684;5.142;2023-11-21T02:04:12;101206.34;;;4.59;100.00
67840;BME280;54636;51.684;5.142;2023-11-21T02:06:38;101201.31;;;4.61;100.00
67840;BME280;54636;51.684;5.142;2023-11-21T02:09:04;101212.28;;;4.67;100.00
67840;BME280;54636;51.684;5.142;2023-11-21T02:11:30;101215.41;;;4.65;100.00
67840;BME280;54636;51.684;5.142;2023-11-21T02:13:56;101223.28;;;4.72;100.00
67840;BME280;54636;51.684;5.142;2023-11-21T02:16:23;101218.53;;;4.76;100.00
67840;BME280;54636;51.684;5.142;2023-11-21T02:18:48;101217.56;;;4.83;100.00
67840;BME280;54636;51.684;5.142;2023-11-21T02:21:14;101218.88;;;4.91;100.00
67840;BME280;54636;51.684;5.142;2023-11-21T02:23:40;101234.81;;;4.98;100.00
67840;BME280;54636;51.684;5.142;2023-11-21T02:26:10;101236.09;;;5.06;100.00
67840;BME280;54636;51.684;5.142;2023-11-21T02:28:36;101223.41;;;5.07;100.00
67840;BME280;54636;51.684;5.142;2023-11-21T02:31:01;101217.56;;;5.08;100.00
67840;BME280;54636;51.684;5.142;2023-11-21T02:33:28;101232.41;;;5.25;100.00
67840;BME280;54636;51.684;5.142;2023-11-21T02:35:53;101227.78;;;5.26;100.00
67840;BME280;54636;51.684;5.142;2023-11-21T02:38:20;101221.19;;;5.27;100.00
67840;BME280;54636;51.684;5.142;2023-11-21T02:40:46;101229.25;;;5.40;100.00
67840;BME280;54636;51.684;5.142;2023-11-21T02:43:11;101237.00;;;5.50;100.00
67840;BME280;54636;51.684;5.142;2023-11-21T02:45:37;101230.31;;;5.55;100.00
67840;BME280;54636;51.684;5.142;2023-11-21T02:48:02;101217.72;;;5.52;100.00
67840;BME280;54636;51.684;5.142;2023-11-21T02:50:28;101223.31;;;5.57;100.00
67840;BME280;54636;51.684;5.142;2023-11-21T02:52:53;101225.31;;;5.66;100.00
67840;BME280;54636;51.684;5.142;2023-11-21T02:55:19;101229.09;;;5.69;100.00
67840;BME280;54636;51.684;5.142;2023-11-21T02:57:44;101225.22;;;5.70;100.00
67840;BME280;54636;51.684;5.142;2023-11-21T03:00:10;101226.72;;;5.71;100.00
67840;BME280;54636;51.684;5.142;2023-11-21T03:02:38;101230.78;;;5.75;100.00
67840;BME280;54636;51.684;5.142;2023-11-21T03:05:05;101236.06;;;5.79;100.00
67840;BME280;54636;51.684;5.142;2023-11-21T03:07:31;101240.59;;;5.82;100.00
67840;BME280;54636;51.684;5.142;2023-11-21T03:09:56;101233.56;;;5.84;100.00
67840;BME280;54636;51.684;5.142;2023-11-21T03:12:21;101235.81;;;5.86;100.00
67840;BME280;54636;51.684;5.142;2023-11-21T03:14:47;101235.06;;;5.85;100.00
67840;BME280;54636;51.684;5.142;2023-11-21T03:17:12;101241.50;;;5.88;100.00
67840;BME280;54636;51.684;5.142;2023-11-21T03:19:41;101239.56;;;5.88;100.00
67840;BME280;54636;51.684;5.142;2023-11-21T03:22:06;101239.34;;;5.95;100.00
67840;BME280;54636;51.684;5.142;2023-11-21T03:24:32;101219.63;;;5.86;100.00
67840;BME280;54636;51.684;5.142;2023-11-21T03:26:57;101233.97;;;5.95;100.00
67840;BME280;54636;51.684;5.142;2023-11-21T03:29:22;101244.94;;;6.01;100.00
67840;BME280;54636;51.684;5.142;2023-11-21T03:31:48;101245.25;;;6.03;100.00
67840;BME280;54636;51.684;5.142;2023-11-21T03:34:24;101235.03;;;5.98;100.00
67840;BME280;54636;51.684;5.142;2023-11-21T03:36:51;101257.00;;;6.09;100.00
67840;BME280;54636;51.684;5.142;2023-11-21T03:39:16;101254.41;;;6.06;100.00
67840;BME280;54636;51.684;5.142;2023-11-21T03:41:41;101258.50;;;6.10;100.00
67840;BME280;54636;51.684;5.142;2023-11-21T03:44:07;101258.81;;;6.12;100.00
67840;BME280;54636;51.684;5.142;2023-11-21T03:46:32;101257.19;;;6.15;100.00
67840;BME280;54636;51.684;5.142;2023-11-21T03:48:57;101262.28;;;6.13;100.00
67840;BME280;54636;51.684;5.142;2023-11-21T03:51:23;101252.34;;;6.10;100.00
67840;BME280;54636;51.684;5.142;2023-11-21T03:53:48;101261.19;;;6.10;100.00
67840;BME280;54636;51.684;5.142;2023-11-21T03:56:14;101255.50;;;6.08;100.00
67840;BME280;54636;51.684;5.142;2023-11-21T03:58:39;101257.44;;;6.08;100.00
67840;BME280;54636;51.684;5.142;2023-11-21T04:01:05;101258.94;;;6.09;100.00
67840;BME280;54636;51.684;5.142;2023-11-21T04:03:30;101250.09;;;6.08;100.00
67840;BME280;54636;51.684;5.142;2023-11-21T04:05:56;101261.84;;;6.14;100.00
67840;BME280;54636;51.684;5.142;2023-11-21T04:08:22;101255.06;;;6.10;100.00
67840;BME280;54636;51.684;5.142;2023-11-21T04:10:47;101268.09;;;6.11;100.00
67840;BME280;54636;51.684;5.142;2023-11-21T04:13:13;101278.00;;;6.14;100.00
67840;BME280;54636;51.684;5.142;2023-11-21T04:15:39;101283.72;;;6.16;100.00
67840;BME280;54636;51.684;5.142;2023-11-21T04:18:04;101285.97;;;6.18;100.00
67840;BME280;54636;51.684;5.142;2023-11-21T04:20:29;101300.09;;;6.22;100.00
67840;BME280;54636;51.684;5.142;2023-11-21T04:22:55;101282.22;;;6.15;100.00
67840;BME280;54636;51.684;5.142;2023-11-21T04:25:20;101304.94;;;6.27;100.00
67840;BME280;54636;51.684;5.142;2023-11-21T04:27:48;101280.50;;;6.09;100.00
67840;BME280;54636;51.684;5.142;2023-11-21T04:30:14;101313.22;;;6.33;100.00
67840;BME280;54636;51.684;5.142;2023-11-21T04:32:40;101309.34;;;6.34;100.00
67840;BME280;54636;51.684;5.142;2023-11-21T04:35:06;101311.91;;;6.37;100.00
67840;BME280;54636;51.684;5.142;2023-11-21T04:37:31;101314.94;;;6.39;100.00
67840;BME280;54636;51.684;5.142;2023-11-21T04:39:57;101319.88;;;6.41;100.00
67840;BME280;54636;51.684;5.142;2023-11-21T04:42:22;101324.53;;;6.40;100.00
67840;BME280;54636;51.684;5.142;2023-11-21T04:44:48;101325.91;;;6.45;100.00
67840;BME280;54636;51.684;5.142;2023-11-21T04:47:14;101335.63;;;6.42;100.00
67840;BME280;54636;51.684;5.142;2023-11-21T04:49:41;101332.69;;;6.49;100.00
67840;BME280;54636;51.684;5.142;2023-11-21T04:52:07;101340.03;;;6.49;100.00
67840;BME280;54636;51.684;5.142;2023-11-21T04:54:35;101342.59;;;6.52;100.00
67840;BME280;54636;51.684;5.142;2023-11-21T04:57:00;101346.34;;;6.55;100.00
67840;BME280;54636;51.684;5.142;2023-11-21T04:59:26;101339.31;;;6.57;100.00
67840;BME280;54636;51.684;5.142;2023-11-21T05:01:52;101336.00;;;6.53;100.00
67840;BME280;54636;51.684;5.142;2023-11-21T05:04:19;101312.09;;;6.43;100.00
67840;BME280;54636;51.684;5.142;2023-11-21T05:06:44;101340.25;;;6.64;100.00
67840;BME280;54636;51.684;5.142;2023-11-21T05:09:09;101337.25;;;6.61;100.00
67840;BME280;54636;51.684;5.142;2023-11-21T05:11:37;101337.38;;;6.58;100.00
67840;BME280;54636;51.684;5.142;2023-11-21T05:14:03;101338.53;;;6.48;100.00
67840;BME280;54636;51.684;5.142;2023-11-21T05:16:29;101336.72;;;6.45;100.00
67840;BME280;54636;51.684;5.142;2023-11-21T05:18:54;101360.28;;;6.53;100.00
67840;BME280;54636;51.684;5.142;2023-11-21T05:21:26;101352.94;;;6.54;100.00
67840;BME280;54636;51.684;5.142;2023-11-21T05:23:51;101341.22;;;6.48;100.00
67840;BME280;54636;51.684;5.142;2023-11-21T05:26:16;101358.34;;;6.54;100.00
67840;BME280;54636;51.684;5.142;2023-11-21T05:28:42;101361.78;;;6.54;100.00
67840;BME280;54636;51.684;5.142;2023-11-21T05:31:07;101358.97;;;6.58;100.00
67840;BME280;54636;51.684;5.142;2023-11-21T05:33:32;101353.25;;;6.56;100.00
67840;BME280;54636;51.684;5.142;2023-11-21T05:35:58;101363.69;;;6.67;100.00
67840;BME280;54636;51.684;5.142;2023-11-21T05:38:24;101364.63;;;6.73;100.00
67840;BME280;54636;51.684;5.142;2023-11-21T05:40:49;101368.72;;;6.77;100.00
67840;BME280;54636;51.684;5.142;2023-11-21T05:43:15;101374.41;;;6.79;100.00
67840;BME280;54636;51.684;5.142;2023-11-21T05:45:40;101381.97;;;6.84;100.00
67840;BME280;54636;51.684;5.142;2023-11-21T05:48:06;101384.66;;;6.84;100.00
67840;BME280;54636;51.684;5.142;2023-11-21T05:50:31;101391.56;;;6.85;100.00
67840;BME280;54636;51.684;5.142;2023-11-21T05:52:57;101380.88;;;6.82;100.00
67840;BME280;54636;51.684;5.142;2023-11-21T05:55:25;101399.59;;;6.98;100.00
67840;BME280;54636;51.684;5.142;2023-11-21T05:57:51;101400.47;;;6.95;100.00
67840;BME280;54636;51.684;5.142;2023-11-21T06:00:16;101400.03;;;6.97;100.00
67840;BME280;54636;51.684;5.142;2023-11-21T06:02:51;101406.63;;;6.96;100.00
67840;BME280;54636;51.684;5.142;2023-11-21T06:05:22;101412.66;;;7.00;100.00
67840;BME280;54636;51.684;5.142;2023-11-21T06:07:55;101426.91;;;7.00;100.00
67840;BME280;54636;51.684;5.142;2023-11-21T06:10:23;101422.59;;;7.03;100.00
67840;BME280;54636;51.684;5.142;2023-11-21T06:12:49;101425.28;;;7.03;100.00
67840;BME280;54636;51.684;5.142;2023-11-21T06:15:15;101411.28;;;6.95;100.00
67840;BME280;54636;51.684;5.142;2023-11-21T06:17:41;101427.44;;;7.08;100.00
67840;BME280;54636;51.684;5.142;2023-11-21T06:20:08;101420.06;;;7.08;100.00
67840;BME280;54636;51.684;5.142;2023-11-21T06:22:38;101437.66;;;7.13;100.00
67840;BME280;54636;51.684;5.142;2023-11-21T06:25:05;101429.13;;;7.14;100.00
67840;BME280;54636;51.684;5.142;2023-11-21T06:27:37;101437.69;;;7.22;100.00
67840;BME280;54636;51.684;5.142;2023-11-21T06:30:03;101431.84;;;7.23;100.00
67840;BME280;54636;51.684;5.142;2023-11-21T06:32:29;101442.72;;;7.33;100.00
67840;BME280;54636;51.684;5.142;2023-11-21T06:34:55;101450.25;;;7.38;100.00
67840;BME280;54636;51.684;5.142;2023-11-21T06:37:21;101438.81;;;7.34;100.00
67840;BME280;54636;51.684;5.142;2023-11-21T06:39:51;101445.03;;;7.43;100.00
67840;BME280;54636;51.684;5.142;2023-11-21T06:42:19;101434.47;;;7.36;100.00
67840;BME280;54636;51.684;5.142;2023-11-21T06:44:48;101454.38;;;7.51;100.00
67840;BME280;54636;51.684;5.142;2023-11-21T06:47:14;101449.72;;;7.52;100.00
67840;BME280;54636;51.684;5.142;2023-11-21T06:49:40;101436.22;;;7.52;100.00
67840;BME280;54636;51.684;5.142;2023-11-21T06:52:06;101443.31;;;7.58;100.00
67840;BME280;54636;51.684;5.142;2023-11-21T06:54:31;101449.91;;;7.57;100.00
67840;BME280;54636;51.684;5.142;2023-11-21T06:56:57;101439.81;;;7.49;100.00
67840;BME280;54636;51.684;5.142;2023-11-21T06:59:23;101444.94;;;7.56;100.00
67840;BME280;54636;51.684;5.142;2023-11-21T07:01:49;101454.13;;;7.58;100.00
67840;BME280;54636;51.684;5.142;2023-11-21T07:04:14;101466.44;;;7.59;100.00
67840;BME280;54636;51.684;5.142;2023-11-21T07:06:40;101447.16;;;7.48;100.00
67840;BME280;54636;51.684;5.142;2023-11-21T07:09:06;101454.81;;;7.50;100.00
67840;BME280;54636;51.684;5.142;2023-11-21T07:11:33;101484.47;;;7.63;100.00
67840;BME280;54636;51.684;5.142;2023-11-21T07:13:59;101486.75;;;7.64;100.00
67840;BME280;54636;51.684;5.142;2023-11-21T07:16:24;101491.25;;;7.67;100.00
67840;BME280;54636;51.684;5.142;2023-11-21T07:18:50;101500.31;;;7.73;100.00
67840;BME280;54636;51.684;5.142;2023-11-21T07:21:16;101499.41;;;7.76;100.00
67840;BME280;54636;51.684;5.142;2023-11-21T07:23:41;101503.19;;;7.79;100.00
67840;BME280;54636;51.684;5.142;2023-11-21T07:26:07;101503.47;;;7.81;100.00
67840;BME280;54636;51.684;5.142;2023-11-21T07:28:34;101487.81;;;7.67;100.00
67840;BME280;54636;51.684;5.142;2023-11-21T07:30:59;101508.44;;;7.82;100.00
67840;BME280;54636;51.684;5.142;2023-11-21T07:33:25;101505.72;;;7.82;100.00
67840;BME280;54636;51.684;5.142;2023-11-21T07:35:51;101520.81;;;7.92;100.00
67840;BME280;54636;51.684;5.142;2023-11-21T07:38:17;101507.72;;;7.91;100.00
67840;BME280;54636;51.684;5.142;2023-11-21T07:40:43;101519.47;;;7.97;100.00
67840;BME280;54636;51.684;5.142;2023-11-21T07:43:08;101504.56;;;7.92;100.00
67840;BME280;54636;51.684;5.142;2023-11-21T07:45:34;101505.03;;;7.91;100.00
67840;BME280;54636;51.684;5.142;2023-11-21T07:47:59;101527.19;;;8.08;100.00
67840;BME280;54636;51.684;5.142;2023-11-21T07:50:28;101521.91;;;8.04;100.00
67840;BME280;54636;51.684;5.142;2023-11-21T07:52:54;101523.44;;;8.14;100.00
67840;BME280;54636;51.684;5.142;2023-11-21T07:55:19;101531.44;;;8.18;100.00
67840;BME280;54636;51.684;5.142;2023-11-21T07:57:45;101530.81;;;8.14;100.00
67840;BME280;54636;51.684;5.142;2023-11-21T08:00:11;101541.69;;;8.23;100.00
67840;BME280;54636;51.684;5.142;2023-11-21T08:02:38;101532.31;;;8.15;100.00
67840;BME280;54636;51.684;5.142;2023-11-21T08:05:05;101550.69;;;8.20;100.00
67840;BME280;54636;51.684;5.142;2023-11-21T08:07:33;101541.47;;;8.08;100.00
67840;BME280;54636;51.684;5.142;2023-11-21T08:09:58;101551.13;;;8.18;100.00
67840;BME280;54636;51.684;5.142;2023-11-21T08:12:24;101556.28;;;8.25;100.00
67840;BME280;54636;51.684;5.142;2023-11-21T08:14:49;101551.63;;;8.26;100.00
67840;BME280;54636;51.684;5.142;2023-11-21T08:17:15;101562.81;;;8.37;100.00
67840;BME280;54636;51.684;5.142;2023-11-21T08:19:40;101564.19;;;8.42;100.00
67840;BME280;54636;51.684;5.142;2023-11-21T08:22:06;101570.34;;;8.51;100.00
67840;BME280;54636;51.684;5.142;2023-11-21T08:24:33;101558.47;;;8.58;100.00
67840;BME280;54636;51.684;5.142;2023-11-21T08:26:58;101574.63;;;8.80;100.00
67840;BME280;54636;51.684;5.142;2023-11-21T08:29:24;101564.25;;;8.87;100.00
67840;BME280;54636;51.684;5.142;2023-11-21T08:31:49;101579.63;;;9.09;100.00
67840;BME280;54636;51.684;5.142;2023-11-21T08:34:15;101589.41;;;9.15;100.00
67840;BME280;54636;51.684;5.142;2023-11-21T08:36:43;101596.78;;;9.24;100.00
67840;BME280;54636;51.684;5.142;2023-11-21T08:39:09;101605.06;;;9.30;100.00
67840;BME280;54636;51.684;5.142;2023-11-21T08:41:35;101584.75;;;9.16;100.00
67840;BME280;54636;51.684;5.142;2023-11-21T08:44:02;101606.44;;;9.25;100.00
67840;BME280;54636;51.684;5.142;2023-11-21T08:46:32;101618.63;;;9.30;100.00
67840;BME280;54636;51.684;5.142;2023-11-21T08:48:59;101611.41;;;9.27;100.00
67840;BME280;54636;51.684;5.142;2023-11-21T08:51:24;101613.06;;;9.33;100.00
67840;BME280;54636;51.684;5.142;2023-11-21T08:53:50;101602.81;;;9.28;100.00
67840;BME280;54636;51.684;5.142;2023-11-21T08:56:15;101616.97;;;9.41;100.00
67840;BME280;54636;51.684;5.142;2023-11-21T08:58:41;101604.31;;;9.38;100.00
67840;BME280;54636;51.684;5.142;2023-11-21T09:01:06;101609.00;;;9.38;100.00
67840;BME280;54636;51.684;5.142;2023-11-21T09:03:32;101606.88;;;9.42;100.00
67840;BME280;54636;51.684;5.142;2023-11-21T09:06:00;101624.50;;;9.46;100.00
67840;BME280;54636;51.684;5.142;2023-11-21T09:08:25;101626.00;;;9.47;100.00
67840;BME280;54636;51.684;5.142;2023-11-21T09:10:53;101629.47;;;9.48;100.00
67840;BME280;54636;51.684;5.142;2023-11-21T09:13:18;101641.09;;;9.48;100.00
67840;BME280;54636;51.684;5.142;2023-11-21T09:15:44;101633.25;;;9.41;100.00
67840;BME280;54636;51.684;5.142;2023-11-21T09:18:15;101635.50;;;9.52;100.00
67840;BME280;54636;51.684;5.142;2023-11-21T09:20:42;101641.84;;;9.58;100.00
67840;BME280;54636;51.684;5.142;2023-11-21T09:23:09;101631.13;;;9.54;100.00
67840;BME280;54636;51.684;5.142;2023-11-21T09:25:34;101647.56;;;9.69;100.00
67840;BME280;54636;51.684;5.142;2023-11-21T09:28:00;101649.19;;;9.76;100.00
67840;BME280;54636;51.684;5.142;2023-11-21T09:30:25;101654.59;;;9.85;100.00
67840;BME280;54636;51.684;5.142;2023-11-21T09:32:51;101660.31;;;9.87;100.00
67840;BME280;54636;51.684;5.142;2023-11-21T09:35:17;101668.00;;;9.88;100.00
67840;BME280;54636;51.684;5.142;2023-11-21T09:37:45;101670.13;;;9.84;100.00
67840;BME280;54636;51.684;5.142;2023-11-21T09:40:11;101652.94;;;9.78;100.00
67840;BME280;54636;51.684;5.142;2023-11-21T09:42:40;101673.75;;;9.81;100.00
67840;BME280;54636;51.684;5.142;2023-11-21T09:45:29;101665.66;;;9.72;100.00
67840;BME280;54636;51.684;5.142;2023-11-21T09:47:59;101679.63;;;9.80;100.00
67840;BME280;54636;51.684;5.142;2023-11-21T09:50:24;101682.34;;;9.80;100.00
67840;BME280;54636;51.684;5.142;2023-11-21T09:53:20;101675.75;;;9.72;100.00
67840;BME280;54636;51.684;5.142;2023-11-21T09:55:51;101686.56;;;9.81;100.00
67840;BME280;54636;51.684;5.142;2023-11-21T09:58:18;101680.84;;;9.79;100.00
67840;BME280;54636;51.684;5.142;2023-11-21T10:00:46;101693.03;;;9.83;100.00
67840;BME280;54636;51.684;5.142;2023-11-21T10:03:12;101699.38;;;9.80;100.00
67840;BME280;54636;51.684;5.142;2023-11-21T10:05:38;101698.16;;;9.81;100.00
67840;BME280;54636;51.684;5.142;2023-11-21T10:08:10;101703.75;;;9.87;100.00
67840;BME280;54636;51.684;5.142;2023-11-21T10:10:36;101703.91;;;9.83;100.00
67840;BME280;54636;51.684;5.142;2023-11-21T10:13:06;101694.41;;;9.79;100.00
67840;BME280;54636;51.684;5.142;2023-11-21T10:15:35;101704.94;;;9.86;100.00
67840;BME280;54636;51.684;5.142;2023-11-21T10:18:03;101721.53;;;10.06;100.00
67840;BME280;54636;51.684;5.142;2023-11-21T10:20:29;101717.75;;;10.13;100.00
67840;BME280;54636;51.684;5.142;2023-11-21T10:22:54;101732.09;;;10.22;100.00
67840;BME280;54636;51.684;5.142;2023-11-21T10:25:22;101720.59;;;10.18;100.00
67840;BME280;54636;51.684;5.142;2023-11-21T10:27:48;101742.94;;;10.32;100.00
67840;BME280;54636;51.684;5.142;2023-11-21T10:30:16;101741.28;;;10.34;100.00
67840;BME280;54636;51.684;5.142;2023-11-21T10:32:42;101744.28;;;10.36;100.00
67840;BME280;54636;51.684;5.142;2023-11-21T10:35:08;101746.34;;;10.50;100.00
67840;BME280;54636;51.684;5.142;2023-11-21T10:37:37;101750.22;;;10.68;100.00
67840;BME280;54636;51.684;5.142;2023-11-21T10:40:07;101742.22;;;10.73;100.00
67840;BME280;54636;51.684;5.142;2023-11-21T10:42:33;101745.97;;;10.76;100.00
67840;BME280;54636;51.684;5.142;2023-11-21T10:44:59;101747.03;;;10.78;100.00
67840;BME280;54636;51.684;5.142;2023-11-21T10:47:26;101749.84;;;10.93;100.00
67840;BME280;54636;51.684;5.142;2023-11-21T10:49:52;101754.78;;;11.04;100.00
67840;BME280;54636;51.684;5.142;2023-11-21T10:52:20;101736.97;;;11.03;100.00
67840;BME280;54636;51.684;5.142;2023-11-21T10:54:46;101751.88;;;11.07;100.00
67840;BME280;54636;51.684;5.142;2023-11-21T10:57:14;101753.28;;;11.03;100.00
67840;BME280;54636;51.684;5.142;2023-11-21T10:59:46;101745.75;;;10.98;100.00
67840;BME280;54636;51.684;5.142;2023-11-21T11:02:24;101760.66;;;11.02;100.00
67840;BME280;54636;51.684;5.142;2023-11-21T11:04:53;101762.38;;;10.91;100.00
67840;BME280;54636;51.684;5.142;2023-11-21T11:07:21;101766.91;;;10.94;100.00
67840;BME280;54636;51.684;5.142;2023-11-21T11:09:52;101767.53;;;10.88;100.00
67840;BME280;54636;51.684;5.142;2023-11-21T11:12:18;101771.31;;;10.82;100.00
67840;BME280;54636;51.684;5.142;2023-11-21T11:14:44;101771.63;;;10.75;100.00
67840;BME280;54636;51.684;5.142;2023-11-21T11:17:10;101770.47;;;10.67;100.00
67840;BME280;54636;51.684;5.142;2023-11-21T11:19:36;101771.53;;;10.60;100.00
67840;BME280;54636;51.684;5.142;2023-11-21T11:27:39;101783.06;;;10.37;100.00
67840;BME280;54636;51.684;5.142;2023-11-21T11:30:14;101793.13;;;10.45;100.00
67840;BME280;54636;51.684;5.142;2023-11-21T11:35:46;101799.03;;;10.44;100.00
67840;BME280;54636;51.684;5.142;2023-11-21T11:38:15;101798.72;;;10.42;100.00
67840;BME280;54636;51.684;5.142;2023-11-21T11:40:44;101796.19;;;10.38;100.00
67840;BME280;54636;51.684;5.142;2023-11-21T11:43:10;101786.69;;;10.34;100.00
67840;BME280;54636;51.684;5.142;2023-11-21T11:45:37;101794.78;;;10.43;100.00
67840;BME280;54636;51.684;5.142;2023-11-21T11:48:06;101803.25;;;10.45;100.00
67840;BME280;54636;51.684;5.142;2023-11-21T11:50:32;101817.28;;;10.52;100.00
67840;BME280;54636;51.684;5.142;2023-11-21T11:53:12;101814.25;;;10.50;100.00
67840;BME280;54636;51.684;5.142;2023-11-21T11:55:38;101818.63;;;10.48;100.00
67840;BME280;54636;51.684;5.142;2023-11-21T11:58:06;101834.78;;;10.42;100.00
67840;BME280;54636;51.684;5.142;2023-11-21T12:02:59;101818.06;;;10.26;100.00
67840;BME280;54636;51.684;5.142;2023-11-21T12:05:27;101816.69;;;10.12;100.00
67840;BME280;54636;51.684;5.142;2023-11-21T12:07:55;101834.63;;;10.18;100.00
67840;BME280;54636;51.684;5.142;2023-11-21T12:10:24;101833.13;;;10.17;100.00
67840;BME280;54636;51.684;5.142;2023-11-21T12:12:56;101837.03;;;10.16;100.00
67840;BME280;54636;51.684;5.142;2023-11-21T12:15:22;101826.19;;;10.07;100.00
67840;BME280;54636;51.684;5.142;2023-11-21T12:17:49;101845.34;;;10.13;100.00
67840;BME280;54636;51.684;5.142;2023-11-21T12:20:18;101847.75;;;10.02;100.00
67840;BME280;54636;51.684;5.142;2023-11-21T12:22:45;101838.06;;;9.91;100.00
67840;BME280;54636;51.684;5.142;2023-11-21T12:25:19;101853.75;;;9.87;100.00
67840;BME280;54636;51.684;5.142;2023-11-21T12:27:46;101857.53;;;9.90;100.00
67840;BME280;54636;51.684;5.142;2023-11-21T12:30:12;101862.19;;;9.89;100.00
67840;BME280;54636;51.684;5.142;2023-11-21T12:32:48;101865.19;;;9.82;100.00
67840;BME280;54636;51.684;5.142;2023-11-21T12:35:14;101862.94;;;9.72;100.00
67840;BME280;54636;51.684;5.142;2023-11-21T12:37:41;101860.50;;;9.65;100.00
67840;BME280;54636;51.684;5.142;2023-11-21T12:40:09;101873.03;;;9.71;100.00
67840;BME280;54636;51.684;5.142;2023-11-21T12:42:41;101859.28;;;9.66;100.00
67840;BME280;54636;51.684;5.142;2023-11-21T12:45:08;101868.94;;;9.76;100.00
67840;BME280;54636;51.684;5.142;2023-11-21T12:47:35;101865.94;;;9.74;100.00
67840;BME280;54636;51.684;5.142;2023-11-21T12:50:02;101873.03;;;9.71;100.00
67840;BME280;54636;51.684;5.142;2023-11-21T12:52:28;101876.50;;;9.72;100.00
67840;BME280;54636;51.684;5.142;2023-11-21T12:54:53;101878.00;;;9.73;100.00
67840;BME280;54636;51.684;5.142;2023-11-21T12:57:19;101876.03;;;9.73;100.00